Time;durP1;ratioP1;P1;durP2;ratioP2;P2;SDS_P1;SDS_P2;PMS_P1;PMS_P2;Temp;Humidity;BMP_temperature;BMP_pressure;BME280_temperature;BME280_humidity;BME280_pressure;Samples;Min_cycle;Max_cycle;Signal;HPM_P1;HPM_P2
2022/04/20 00:00:53;;;;;;;;;21.25;19.75;;;;;;;;5055281;28;45564;-69
2022/04/20 00:03:18;;;;;;;;;25.75;22.50;;;;;;;;5055385;28;45363;-68
2022/04/20 00:05:43;;;;;;;;;23.50;17.50;;;;;;;;5055409;28;45576;-68
2022/04/20 00:08:09;;;;;;;;;26.25;24.00;;;;;;;;5056260;28;45555;-68
2022/04/20 00:10:34;;;;;;;;;29.25;28.00;;;;;;;;5056582;28;45563;-68
2022/04/20 00:12:59;;;;;;;;;28.75;26.50;;;;;;;;5055415;28;45487;-69
2022/04/20 00:15:24;;;;;;;;;22.50;21.75;;;;;;;;5054785;28;45426;-69
2022/04/20 00:17:50;;;;;;;;;29.25;26.50;;;;;;;;5055584;28;45383;-69
2022/04/20 00:20:15;;;;;;;;;28.50;26.50;;;;;;;;5055658;28;45359;-69
2022/04/20 00:22:40;;;;;;;;;32.75;29.75;;;;;;;;5057015;28;45415;-69
2022/04/20 00:25:05;;;;;;;;;31.50;29.50;;;;;;;;5054621;28;45763;-70
2022/04/20 00:27:35;;;;;;;;;27.50;25.50;;;;;;;;5055347;28;45681;-69
2022/04/20 00:30:01;;;;;;;;;32.50;28.00;;;;;;;;5054550;28;45438;-70
2022/04/20 00:32:26;;;;;;;;;28.00;27.00;;;;;;;;5055366;28;45331;-70
2022/04/20 00:34:51;;;;;;;;;35.75;31.75;;;;;;;;5056821;28;45438;-69
2022/04/20 00:37:17;;;;;;;;;33.50;30.50;;;;;;;;5054621;28;45629;-70
2022/04/20 00:39:42;;;;;;;;;35.50;30.50;;;;;;;;5049533;28;45472;-70
2022/04/20 00:42:08;;;;;;;;;31.25;29.75;;;;;;;;5055005;28;45593;-70
2022/04/20 00:44:33;;;;;;;;;37.25;31.50;;;;;;;;5054769;28;46197;-69
2022/04/20 00:46:59;;;;;;;;;32.75;30.25;;;;;;;;5056928;28;45436;-68
2022/04/20 00:49:24;;;;;;;;;30.75;28.25;;;;;;;;5055343;28;45430;-68
2022/04/20 00:51:54;;;;;;;;;28.25;26.00;;;;;;;;5054666;28;45419;-69
2022/04/20 00:54:20;;;;;;;;;36.25;30.50;;;;;;;;5054536;28;47005;-69
2022/04/20 00:56:45;;;;;;;;;34.50;30.50;;;;;;;;5055087;28;45733;-69
2022/04/20 00:59:10;;;;;;;;;35.00;31.50;;;;;;;;5054542;28;45384;-69
2022/04/20 01:01:36;;;;;;;;;35.00;29.00;;;;;;;;5056606;28;45308;-68
2022/04/20 01:04:01;;;;;;;;;34.50;30.00;;;;;;;;5054705;28;45497;-69
2022/04/20 01:06:26;;;;;;;;;32.00;29.75;;;;;;;;5054145;28;45524;-69
2022/04/20 01:08:51;;;;;;;;;33.25;30.00;;;;;;;;5052397;28;45403;-69
2022/04/20 01:11:17;;;;;;;;;32.25;28.75;;;;;;;;5054306;28;45813;-70
2022/04/20 01:13:42;;;;;;;;;35.75;30.25;;;;;;;;5055903;28;45417;-69
2022/04/20 01:16:08;;;;;;;;;33.00;31.00;;;;;;;;5054529;28;45398;-70
2022/04/20 01:18:33;;;;;;;;;31.25;29.50;;;;;;;;5054523;28;45765;-69
2022/04/20 01:20:59;;;;;;;;;42.75;33.50;;;;;;;;5054686;28;45392;-69
2022/04/20 01:23:25;;;;;;;;;45.25;34.25;;;;;;;;5054534;28;47201;-69
2022/04/20 01:25:50;;;;;;;;;38.75;35.25;;;;;;;;5042932;28;45388;-69
2022/04/20 01:28:17;;;;;;;;;35.75;31.00;;;;;;;;5053965;28;45567;-69
2022/04/20 01:30:42;;;;;;;;;42.50;35.50;;;;;;;;5054125;28;45514;-69
2022/04/20 01:33:07;;;;;;;;;44.00;35.00;;;;;;;;5054185;28;46133;-69
2022/04/20 01:35:32;;;;;;;;;32.50;30.50;;;;;;;;5054447;28;45400;-69
2022/04/20 01:37:58;;;;;;;;;42.75;35.75;;;;;;;;5056473;28;45494;-69
2022/04/20 01:40:23;;;;;;;;;44.25;37.50;;;;;;;;5054243;28;45363;-69
2022/04/20 01:42:48;;;;;;;;;50.50;38.75;;;;;;;;5053707;28;45458;-69
2022/04/20 01:45:13;;;;;;;;;48.00;37.75;;;;;;;;5053891;28;45387;-69
2022/04/20 01:47:39;;;;;;;;;48.25;38.00;;;;;;;;5055335;28;45454;-69
2022/04/20 01:50:05;;;;;;;;;46.25;36.75;;;;;;;;5055304;28;45233;-69
2022/04/20 01:52:30;;;;;;;;;49.25;38.25;;;;;;;;5054405;28;45383;-69
2022/04/20 01:54:55;;;;;;;;;46.00;35.75;;;;;;;;5053974;28;45310;-69
2022/04/20 01:57:20;;;;;;;;;43.75;36.75;;;;;;;;5053117;28;45462;-68
2022/04/20 01:59:45;;;;;;;;;46.00;37.50;;;;;;;;5053649;28;45325;-70
2022/04/20 02:04:54;;;;;;;;;47.25;38.25;;;;;;;;5051220;28;45458;-69
2022/04/20 02:07:19;;;;;;;;;39.00;34.25;;;;;;;;5053522;28;45400;-70
2022/04/20 02:09:45;;;;;;;;;46.00;37.00;;;;;;;;5053575;28;47624;-69
2022/04/20 02:12:10;;;;;;;;;43.50;37.00;;;;;;;;5053146;28;46191;-69
2022/04/20 02:14:35;;;;;;;;;41.00;34.50;;;;;;;;5053555;28;45314;-69
2022/04/20 02:17:01;;;;;;;;;47.25;39.00;;;;;;;;5055001;28;45459;-70
2022/04/20 02:19:26;;;;;;;;;49.00;37.00;;;;;;;;5052315;28;45576;-69
2022/04/20 02:21:51;;;;;;;;;47.25;37.75;;;;;;;;5053422;28;45502;-69
2022/04/20 02:24:16;;;;;;;;;47.50;38.25;;;;;;;;5053418;28;45327;-70
2022/04/20 02:26:42;;;;;;;;;45.00;37.50;;;;;;;;5053218;28;45512;-70
2022/04/20 02:29:07;;;;;;;;;46.75;37.25;;;;;;;;5045472;28;45514;-69
2022/04/20 02:31:32;;;;;;;;;47.00;37.50;;;;;;;;5054191;28;45932;-69
2022/04/20 02:33:58;;;;;;;;;49.75;41.50;;;;;;;;5053122;28;45558;-70
2022/04/20 02:36:23;;;;;;;;;51.25;40.00;;;;;;;;5053303;28;45257;-70
2022/04/20 02:38:48;;;;;;;;;50.00;38.75;;;;;;;;5053219;28;45439;-69
2022/04/20 02:41:14;;;;;;;;;47.00;37.25;;;;;;;;5052879;28;46536;-69
2022/04/20 02:43:39;;;;;;;;;50.25;39.50;;;;;;;;5055067;28;45308;-69
2022/04/20 02:46:05;;;;;;;;;43.50;36.50;;;;;;;;5053227;28;45438;-69
2022/04/20 02:48:31;;;;;;;;;48.25;37.75;;;;;;;;5053239;28;45561;-69
2022/04/20 02:50:56;;;;;;;;;54.25;42.00;;;;;;;;5053069;28;45870;-69
2022/04/20 02:53:21;;;;;;;;;57.50;43.25;;;;;;;;5052915;28;45361;-69
2022/04/20 02:55:46;;;;;;;;;53.25;42.50;;;;;;;;5054899;28;45360;-68
2022/04/20 02:58:11;;;;;;;;;49.75;40.00;;;;;;;;5052510;28;45616;-68
2022/04/20 03:00:37;;;;;;;;;53.25;43.75;;;;;;;;5052760;28;45371;-69
2022/04/20 03:03:02;;;;;;;;;54.50;45.00;;;;;;;;5052274;28;45378;-70
2022/04/20 03:05:27;;;;;;;;;52.75;42.75;;;;;;;;5053300;28;45590;-69
2022/04/20 03:07:53;;;;;;;;;52.00;43.00;;;;;;;;5055096;28;45546;-70
2022/04/20 03:10:18;;;;;;;;;53.00;41.25;;;;;;;;5052058;28;45980;-69
2022/04/20 03:12:43;;;;;;;;;55.50;45.50;;;;;;;;5052512;28;45711;-69
2022/04/20 03:15:09;;;;;;;;;50.75;41.75;;;;;;;;5052564;28;45554;-69
2022/04/20 03:17:34;;;;;;;;;56.75;44.50;;;;;;;;5052898;28;45373;-69
2022/04/20 03:19:59;;;;;;;;;51.75;42.25;;;;;;;;5054494;28;46004;-68
2022/04/20 03:22:24;;;;;;;;;54.50;44.75;;;;;;;;5052924;28;45240;-68
2022/04/20 03:24:49;;;;;;;;;54.50;43.00;;;;;;;;5052339;28;45521;-68
2022/04/20 03:27:15;;;;;;;;;55.00;44.25;;;;;;;;5052579;28;45488;-68
2022/04/20 03:29:41;;;;;;;;;52.25;43.25;;;;;;;;5052076;28;46136;-70
2022/04/20 03:32:11;;;;;;;;;53.50;44.50;;;;;;;;5056953;28;45467;-68
2022/04/20 03:34:36;;;;;;;;;55.00;44.25;;;;;;;;5057641;28;45476;-70
2022/04/20 03:37:02;;;;;;;;;61.00;46.25;;;;;;;;5055983;28;45672;-70
2022/04/20 03:39:27;;;;;;;;;56.25;45.75;;;;;;;;5055464;28;47164;-70
2022/04/20 03:41:52;;;;;;;;;56.00;44.50;;;;;;;;5055629;28;45543;-70
2022/04/20 03:44:17;;;;;;;;;60.25;49.00;;;;;;;;5056249;28;45225;-70
2022/04/20 03:46:43;;;;;;;;;52.00;41.50;;;;;;;;5057679;28;45485;-69
2022/04/20 03:49:08;;;;;;;;;54.00;43.75;;;;;;;;5055377;28;46235;-69
2022/04/20 03:51:33;;;;;;;;;51.25;43.25;;;;;;;;5055692;28;45450;-69
2022/04/20 03:53:58;;;;;;;;;55.00;43.25;;;;;;;;5054930;28;45419;-69
2022/04/20 03:56:23;;;;;;;;;55.50;45.25;;;;;;;;5055545;28;45502;-69
2022/04/20 03:58:49;;;;;;;;;59.00;47.00;;;;;;;;5057287;28;46077;-70
2022/04/20 04:01:14;;;;;;;;;57.50;45.25;;;;;;;;5055327;28;45498;-69
2022/04/20 04:03:39;;;;;;;;;58.75;46.50;;;;;;;;5055327;28;45455;-68
2022/04/20 04:06:04;;;;;;;;;59.75;46.00;;;;;;;;5055270;28;45407;-69
2022/04/20 04:08:29;;;;;;;;;60.25;46.25;;;;;;;;5055161;28;46522;-68
2022/04/20 04:10:56;;;;;;;;;59.00;45.25;;;;;;;;5056978;28;45486;-69
2022/04/20 04:13:22;;;;;;;;;57.75;46.00;;;;;;;;5054968;28;45416;-69
2022/04/20 04:15:47;;;;;;;;;58.75;47.50;;;;;;;;5055087;28;45299;-69
2022/04/20 04:18:12;;;;;;;;;60.00;47.00;;;;;;;;5054631;28;46103;-69
2022/04/20 04:20:37;;;;;;;;;57.25;46.00;;;;;;;;5054767;28;45515;-69
2022/04/20 04:23:02;;;;;;;;;61.00;48.25;;;;;;;;5056437;28;45437;-69
2022/04/20 04:25:28;;;;;;;;;60.00;48.00;;;;;;;;5055751;28;45427;-69
2022/04/20 04:27:53;;;;;;;;;60.50;45.50;;;;;;;;5054651;28;46289;-69
2022/04/20 04:30:19;;;;;;;;;66.00;50.25;;;;;;;;5054446;28;45446;-69
2022/04/20 04:32:44;;;;;;;;;56.00;44.50;;;;;;;;5054814;28;46472;-69
2022/04/20 04:35:09;;;;;;;;;59.00;46.25;;;;;;;;5055173;28;45444;-69
2022/04/20 04:37:35;;;;;;;;;59.75;47.75;;;;;;;;5055451;28;46004;-69
2022/04/20 04:40:01;;;;;;;;;59.00;48.50;;;;;;;;5054141;28;45469;-69
2022/04/20 04:42:26;;;;;;;;;63.00;50.25;;;;;;;;5054105;28;45468;-69
2022/04/20 04:44:52;;;;;;;;;61.50;48.25;;;;;;;;5054703;28;45391;-69
2022/04/20 04:50:01;;;;;;;;;63.50;49.25;;;;;;;;5051980;28;45355;-69
2022/04/20 04:52:27;;;;;;;;;61.50;49.50;;;;;;;;5054263;28;45286;-69
2022/04/20 04:54:53;;;;;;;;;58.00;45.25;;;;;;;;5053849;28;45514;-69
2022/04/20 04:57:18;;;;;;;;;60.25;47.00;;;;;;;;5053434;28;47032;-70
2022/04/20 04:59:43;;;;;;;;;58.75;47.00;;;;;;;;5054057;28;45447;-70
2022/04/20 05:02:09;;;;;;;;;62.75;48.75;;;;;;;;5054912;28;45276;-69
2022/04/20 05:04:35;;;;;;;;;55.00;45.25;;;;;;;;5055204;28;45511;-69
2022/04/20 05:07:00;;;;;;;;;62.75;48.25;;;;;;;;5053198;28;46015;-69
2022/04/20 05:09:26;;;;;;;;;56.25;46.50;;;;;;;;5053028;28;45478;-68
2022/04/20 05:11:51;;;;;;;;;63.50;48.75;;;;;;;;5053991;28;45345;-69
2022/04/20 05:14:16;;;;;;;;;60.00;48.00;;;;;;;;5053623;28;45503;-70
2022/04/20 05:16:41;;;;;;;;;64.67;49.00;;;;;;;;5055041;28;46311;-70
2022/04/20 05:19:07;;;;;;;;;63.75;48.75;;;;;;;;5052902;28;45431;-69
2022/04/20 05:21:32;;;;;;;;;60.75;48.25;;;;;;;;5052784;28;45440;-69
2022/04/20 05:23:58;;;;;;;;;60.00;48.00;;;;;;;;5053099;28;45455;-70
2022/04/20 05:26:24;;;;;;;;;66.33;52.00;;;;;;;;5053295;28;46156;-69
2022/04/20 05:28:49;;;;;;;;;64.67;51.00;;;;;;;;5055028;28;45473;-70
2022/04/20 05:31:15;;;;;;;;;66.00;50.75;;;;;;;;5053311;28;45643;-69
2022/04/20 05:33:40;;;;;;;;;65.67;52.67;;;;;;;;5052349;28;47266;-69
2022/04/20 05:36:05;;;;;;;;;60.50;48.50;;;;;;;;5052731;28;45656;-69
2022/04/20 05:43:58;;;;;;;;;63.75;50.00;;;;;;;;5054406;28;45368;-70
2022/04/20 05:46:23;;;;;;;;;63.25;50.75;;;;;;;;5051701;28;46582;-70
2022/04/20 05:48:48;;;;;;;;;65.33;51.00;;;;;;;;5037284;28;45677;-69
2022/04/20 05:51:13;;;;;;;;;64.50;51.25;;;;;;;;5051789;28;45376;-69
2022/04/20 05:53:39;;;;;;;;;66.50;49.75;;;;;;;;5051741;28;45391;-70
2022/04/20 05:56:04;;;;;;;;;67.00;51.25;;;;;;;;5054041;28;45670;-70
2022/04/20 05:58:29;;;;;;;;;61.50;47.00;;;;;;;;5053021;28;45459;-70
2022/04/20 06:00:55;;;;;;;;;65.50;50.00;;;;;;;;5056314;28;45542;-69
2022/04/20 06:03:20;;;;;;;;;66.75;49.75;;;;;;;;5055077;28;45396;-70
2022/04/20 06:05:45;;;;;;;;;59.50;47.00;;;;;;;;5062440;28;45888;-69
2022/04/20 06:08:11;;;;;;;;;59.00;46.33;;;;;;;;5054596;28;45753;-70
2022/04/20 06:10:37;;;;;;;;;68.33;52.33;;;;;;;;5053012;28;45539;-70
2022/04/20 06:13:02;;;;;;;;;66.33;51.67;;;;;;;;5051455;28;45551;-70
2022/04/20 06:15:27;;;;;;;;;63.00;49.00;;;;;;;;5055175;28;46957;-70
2022/04/20 06:17:52;;;;;;;;;61.50;48.25;;;;;;;;5051548;28;45391;-70
2022/04/20 06:20:18;;;;;;;;;64.00;51.00;;;;;;;;5051810;28;45496;-70
2022/04/20 06:22:43;;;;;;;;;61.50;49.75;;;;;;;;5053696;28;45430;-69
2022/04/20 06:25:08;;;;;;;;;61.75;49.25;;;;;;;;5057449;28;46240;-70
2022/04/20 06:27:34;;;;;;;;;59.50;48.50;;;;;;;;5056985;27;45464;-70
2022/04/20 06:29:59;;;;;;;;;60.50;49.00;;;;;;;;5063770;28;45372;-70
2022/04/20 06:32:24;;;;;;;;;63.75;48.50;;;;;;;;5054272;28;45165;-70
2022/04/20 06:34:53;;;;;;;;;61.25;49.00;;;;;;;;5053871;28;45965;-70
2022/04/20 06:37:19;;;;;;;;;59.75;48.25;;;;;;;;5049518;28;45541;-69
2022/04/20 06:39:44;;;;;;;;;64.25;47.75;;;;;;;;5051602;28;45447;-70
2022/04/20 06:42:09;;;;;;;;;57.75;46.50;;;;;;;;5050720;28;45502;-71
2022/04/20 06:44:34;;;;;;;;;57.25;46.75;;;;;;;;5050434;28;45424;-70
2022/04/20 06:47:00;;;;;;;;;61.25;47.25;;;;;;;;5052127;28;45371;-70
2022/04/20 06:49:25;;;;;;;;;60.75;48.00;;;;;;;;5051337;28;45452;-70
2022/04/20 07:00:02;;;;;;;;;58.75;46.50;;;;;;;;5052018;28;45402;-70
2022/04/20 07:02:28;;;;;;;;;64.75;48.50;;;;;;;;5051470;28;45414;-70
2022/04/20 07:04:53;;;;;;;;;54.75;44.75;;;;;;;;5053784;28;45338;-71
2022/04/20 07:07:18;;;;;;;;;60.00;48.50;;;;;;;;5054768;28;45380;-70
2022/04/20 07:09:43;;;;;;;;;53.75;43.50;;;;;;;;5054871;28;45400;-70
2022/04/20 07:12:08;;;;;;;;;51.75;42.50;;;;;;;;5055058;28;45486;-70
2022/04/20 07:14:34;;;;;;;;;56.00;45.75;;;;;;;;5054819;28;46894;-72
2022/04/20 07:17:00;;;;;;;;;57.00;45.00;;;;;;;;5056233;28;45324;-71
2022/04/20 07:19:26;;;;;;;;;54.25;42.25;;;;;;;;5054018;28;45352;-70
2022/04/20 07:21:51;;;;;;;;;60.00;48.75;;;;;;;;5054401;28;45403;-70
2022/04/20 07:24:16;;;;;;;;;57.50;44.25;;;;;;;;5054282;28;46112;-70
2022/04/20 07:26:41;;;;;;;;;54.00;42.00;;;;;;;;5054518;28;45559;-70
2022/04/20 07:29:07;;;;;;;;;52.75;42.00;;;;;;;;5039927;28;45374;-69
2022/04/20 07:31:32;;;;;;;;;52.25;40.00;;;;;;;;5054849;28;45371;-71
2022/04/20 07:33:58;;;;;;;;;61.00;46.50;;;;;;;;5053969;28;45442;-70
2022/04/20 07:36:23;;;;;;;;;46.25;36.00;;;;;;;;5054114;28;45255;-70
2022/04/20 07:38:49;;;;;;;;;53.25;41.25;;;;;;;;5055067;28;45392;-71
2022/04/20 07:41:14;;;;;;;;;50.25;40.50;;;;;;;;5055257;28;45221;-70
2022/04/20 07:43:39;;;;;;;;;44.75;36.00;;;;;;;;5056634;28;45241;-71
2022/04/20 07:46:04;;;;;;;;;52.25;41.00;;;;;;;;5054210;28;45506;-70
2022/04/20 07:48:30;;;;;;;;;46.50;38.25;;;;;;;;5054622;28;45239;-70
2022/04/20 07:50:55;;;;;;;;;52.00;41.75;;;;;;;;5054750;28;45558;-70
2022/04/20 07:53:20;;;;;;;;;50.25;40.75;;;;;;;;5054436;28;45311;-71
2022/04/20 07:55:49;;;;;;;;;48.00;39.75;;;;;;;;5055798;28;45318;-70
2022/04/20 07:58:14;;;;;;;;;47.75;38.75;;;;;;;;5053443;28;45387;-70
2022/04/20 08:00:40;;;;;;;;;44.50;36.00;;;;;;;;5052064;28;45448;-70
2022/04/20 08:03:18;;;;;;;;;48.75;40.25;;;;;;;;5052624;28;46678;-70
2022/04/20 08:05:53;;;;;;;;;49.50;39.00;;;;;;;;5052578;28;45404;-70
2022/04/20 08:08:19;;;;;;;;;44.25;36.00;;;;;;;;5052879;28;45548;-70
2022/04/20 08:10:44;;;;;;;;;42.00;35.00;;;;;;;;5055045;28;45527;-70
2022/04/20 08:15:55;;;;;;;;;39.00;34.50;;;;;;;;5052091;28;45478;-70
2022/04/20 08:18:20;;;;;;;;;38.25;32.00;;;;;;;;5053181;28;45315;-70
2022/04/20 08:20:46;;;;;;;;;34.75;30.75;;;;;;;;5053138;28;45436;-69
2022/04/20 08:23:11;;;;;;;;;37.75;32.25;;;;;;;;5052768;28;45201;-71
2022/04/20 08:25:36;;;;;;;;;35.00;32.00;;;;;;;;5054819;28;45345;-70
2022/04/20 08:28:02;;;;;;;;;35.50;32.50;;;;;;;;5053580;28;45320;-70
2022/04/20 08:30:28;;;;;;;;;45.00;36.25;;;;;;;;5052727;28;45418;-70
2022/04/20 08:32:53;;;;;;;;;31.50;30.50;;;;;;;;5052971;28;46066;-70
2022/04/20 08:35:19;;;;;;;;;35.25;31.00;;;;;;;;5053090;28;45435;-69
2022/04/20 08:37:45;;;;;;;;;34.00;29.75;;;;;;;;5054987;28;45553;-70
2022/04/20 08:40:11;;;;;;;;;39.50;33.75;;;;;;;;5052537;28;45458;-70
2022/04/20 08:42:37;;;;;;;;;33.50;30.00;;;;;;;;5051998;28;46500;-70
2022/04/20 08:45:03;;;;;;;;;35.50;32.00;;;;;;;;5051768;28;45301;-69
2022/04/20 08:47:33;;;;;;;;;34.00;27.75;;;;;;;;5052559;28;45342;-70
2022/04/20 08:50:01;;;;;;;;;29.75;25.00;;;;;;;;5054234;28;45399;-70
2022/04/20 08:52:38;;;;;;;;;29.50;23.00;;;;;;;;5052916;28;45493;-70
2022/04/20 08:55:05;;;;;;;;;19.25;19.25;;;;;;;;5051806;28;45518;-70
2022/04/20 08:57:32;;;;;;;;;30.50;23.75;;;;;;;;5052107;28;45682;-70
2022/04/20 08:59:58;;;;;;;;;29.75;25.75;;;;;;;;5033380;28;160987;-70
2022/04/20 09:02:24;;;;;;;;;24.25;22.25;;;;;;;;5053142;28;46007;-70
2022/04/20 09:04:49;;;;;;;;;25.50;24.75;;;;;;;;5055694;28;45402;-70
2022/04/20 09:07:15;;;;;;;;;24.75;24.75;;;;;;;;5052976;28;45362;-69
2022/04/20 09:09:40;;;;;;;;;52.75;43.00;;;;;;;;5053084;28;45515;-69
2022/04/20 09:12:11;;;;;;;;;32.25;32.00;;;;;;;;5052716;28;46522;-70
2022/04/20 09:14:36;;;;;;;;;20.75;19.50;;;;;;;;5053311;28;45297;-69
2022/04/20 09:17:02;;;;;;;;;17.50;16.50;;;;;;;;5054582;28;45506;-69
2022/04/20 09:19:28;;;;;;;;;23.25;20.25;;;;;;;;5053942;28;45328;-70
2022/04/20 09:21:57;;;;;;;;;25.50;22.50;;;;;;;;5052957;28;46409;-70
2022/04/20 09:24:23;;;;;;;;;12.25;12.25;;;;;;;;5051922;28;45337;-70
2022/04/20 09:26:52;;;;;;;;;23.25;20.50;;;;;;;;5052770;28;45533;-70
2022/04/20 09:29:18;;;;;;;;;12.50;12.50;;;;;;;;5052763;28;45600;-70
2022/04/20 09:31:44;;;;;;;;;24.00;18.75;;;;;;;;5054859;28;46850;-70
2022/04/20 09:35:15;;;;;;;;;15.75;15.25;;;;;;;;5052890;28;45613;-69
2022/04/20 09:37:16;;;;;;;;;22.75;21.25;;;;;;;;5038669;28;45360;-69
2022/04/20 09:39:47;;;;;;;;;20.00;20.00;;;;;;;;5052627;28;45367;-70
2022/04/20 09:42:13;;;;;;;;;18.00;18.00;;;;;;;;5052453;28;45508;-70
2022/04/20 09:44:51;;;;;;;;;20.50;16.75;;;;;;;;5053050;28;45490;-69
2022/04/20 09:50:04;;;;;;;;;29.75;29.25;;;;;;;;5050705;28;45335;-71
2022/04/20 09:52:36;;;;;;;;;19.25;16.25;;;;;;;;5052172;28;46290;-70
2022/04/20 09:55:05;;;;;;;;;20.50;20.00;;;;;;;;5051915;28;45490;-69
2022/04/20 09:57:31;;;;;;;;;14.50;13.25;;;;;;;;5051917;28;45358;-69
2022/04/20 09:59:59;;;;;;;;;20.25;17.25;;;;;;;;5052184;28;45456;-69
2022/04/20 10:02:25;;;;;;;;;18.00;17.75;;;;;;;;5052147;28;47389;-70
2022/04/20 10:04:51;;;;;;;;;16.00;15.75;;;;;;;;5054147;28;45380;-69
2022/04/20 10:07:17;;;;;;;;;29.25;25.50;;;;;;;;5052020;28;45504;-70
2022/04/20 10:09:43;;;;;;;;;16.75;11.50;;;;;;;;5052141;28;45513;-70
2022/04/20 10:12:10;;;;;;;;;20.50;16.75;;;;;;;;5052480;28;46132;-70
2022/04/20 10:17:24;;;;;;;;;11.00;11.00;;;;;;;;5037546;28;45398;-70
2022/04/20 10:19:50;;;;;;;;;14.50;13.75;;;;;;;;5053985;28;45394;-69
2022/04/20 10:22:17;;;;;;;;;11.50;11.50;;;;;;;;5052143;28;45453;-71
2022/04/20 10:24:45;;;;;;;;;11.75;11.00;;;;;;;;5051208;28;45821;-70
2022/04/20 10:27:15;;;;;;;;;9.75;9.75;;;;;;;;5035593;28;45805;-70
2022/04/20 10:29:40;;;;;;;;;12.25;11.50;;;;;;;;5052122;28;45404;-70
2022/04/20 10:32:09;;;;;;;;;13.00;12.50;;;;;;;;5053188;28;45665;-70
2022/04/20 10:34:35;;;;;;;;;14.25;12.75;;;;;;;;5052843;28;45419;-70
2022/04/20 10:37:02;;;;;;;;;14.00;11.50;;;;;;;;5051759;28;45333;-71
2022/04/20 10:39:30;;;;;;;;;12.50;12.50;;;;;;;;5050701;28;45304;-70
2022/04/20 10:42:19;;;;;;;;;13.00;11.75;;;;;;;;5051076;28;47246;-70
2022/04/20 10:44:59;;;;;;;;;16.50;14.00;;;;;;;;5037095;28;45450;-70
2022/04/20 10:47:42;;;;;;;;;9.75;9.75;;;;;;;;5050304;28;45469;-71
2022/04/20 10:50:13;;;;;;;;;10.50;10.50;;;;;;;;5048840;28;45488;-71
2022/04/20 10:52:39;;;;;;;;;11.75;9.25;;;;;;;;5052104;28;46405;-70
2022/04/20 10:55:05;;;;;;;;;7.50;7.50;;;;;;;;5049996;28;45410;-71
2022/04/20 10:57:34;;;;;;;;;10.00;7.25;;;;;;;;5050882;28;45465;-71
2022/04/20 11:00:30;;;;;;;;;10.25;9.75;;;;;;;;5051194;28;45498;-71
2022/04/20 11:03:00;;;;;;;;;13.00;13.00;;;;;;;;5021398;28;46364;-71
2022/04/20 11:05:26;;;;;;;;;12.00;10.00;;;;;;;;5051181;28;45506;-70
2022/04/20 11:08:02;;;;;;;;;6.50;5.75;;;;;;;;5052715;28;45421;-71
2022/04/20 11:10:27;;;;;;;;;8.25;6.00;;;;;;;;5050447;28;45545;-70
2022/04/20 11:21:06;;;;;;;;;9.75;7.75;;;;;;;;5050898;28;45380;-69
2022/04/20 11:23:51;;;;;;;;;6.75;6.00;;;;;;;;5050325;28;47060;-71
2022/04/20 11:26:30;;;;;;;;;13.00;11.50;;;;;;;;5050968;28;45476;-71
2022/04/20 11:28:57;;;;;;;;;10.00;8.75;;;;;;;;5053003;28;45456;-71
2022/04/20 11:31:22;;;;;;;;;7.25;5.00;;;;;;;;5051016;28;45868;-71
2022/04/20 11:33:49;;;;;;;;;5.25;5.25;;;;;;;;5050628;28;46273;-69
2022/04/20 11:36:14;;;;;;;;;9.25;7.75;;;;;;;;5051236;28;45401;-71
2022/04/20 11:38:41;;;;;;;;;5.75;5.75;;;;;;;;5050073;28;45419;-69
2022/04/20 11:41:07;;;;;;;;;12.00;9.75;;;;;;;;5052489;28;45502;-71
2022/04/20 11:43:32;;;;;;;;;4.00;4.00;;;;;;;;5051708;28;45369;-71
2022/04/20 11:45:59;;;;;;;;;4.75;4.75;;;;;;;;5036968;28;45412;-71
2022/04/20 11:48:24;;;;;;;;;5.00;4.00;;;;;;;;5051087;28;45443;-69
2022/04/20 11:50:59;;;;;;;;;4.75;3.50;;;;;;;;5051011;28;45449;-70
2022/04/20 11:53:38;;;;;;;;;7.50;6.00;;;;;;;;5054126;28;46187;-70
2022/04/20 11:56:04;;;;;;;;;6.25;4.00;;;;;;;;5052507;28;45343;-71
2022/04/20 11:58:33;;;;;;;;;8.50;5.50;;;;;;;;5037887;28;45335;-70
2022/04/20 12:01:02;;;;;;;;;6.25;5.25;;;;;;;;5022148;28;45316;-70
2022/04/20 12:03:30;;;;;;;;;1.00;1.00;;;;;;;;5018607;28;46308;-70
2022/04/20 12:06:05;;;;;;;;;2.50;2.00;;;;;;;;5017140;28;45473;-70
2022/04/20 12:08:32;;;;;;;;;3.00;3.00;;;;;;;;4998789;28;45394;-70
2022/04/20 12:10:57;;;;;;;;;4.00;3.00;;;;;;;;5019088;28;45519;-70
2022/04/20 12:13:26;;;;;;;;;3.00;3.00;;;;;;;;5018392;28;46330;-70
2022/04/20 12:16:08;;;;;;;;;3.75;3.75;;;;;;;;5018209;28;45499;-70
2022/04/20 12:18:39;;;;;;;;;4.75;4.00;;;;;;;;5018524;28;45639;-70
2022/04/20 12:21:07;;;;;;;;;3.25;2.75;;;;;;;;5018461;28;46035;-70
2022/04/20 12:23:35;;;;;;;;;8.00;7.00;;;;;;;;5014712;28;46955;-70
2022/04/20 12:26:05;;;;;;;;;4.75;3.75;;;;;;;;5019461;28;45395;-70
2022/04/20 12:28:43;;;;;;;;;6.00;6.00;;;;;;;;5017566;28;45404;-70
2022/04/20 12:31:10;;;;;;;;;4.00;4.00;;;;;;;;5016866;28;45503;-70
2022/04/20 12:33:37;;;;;;;;;3.00;3.00;;;;;;;;5018047;28;47176;-70
2022/04/20 12:36:03;;;;;;;;;5.00;4.75;;;;;;;;5018115;28;45402;-71
2022/04/20 12:38:28;;;;;;;;;3.50;3.25;;;;;;;;4998886;28;45417;-70
2022/04/20 12:40:54;;;;;;;;;4.50;3.50;;;;;;;;5021056;28;45467;-72
2022/04/20 12:43:20;;;;;;;;;4.50;4.50;;;;;;;;5018767;28;45777;-71
2022/04/20 12:45:45;;;;;;;;;6.50;5.50;;;;;;;;5019113;28;45325;-71
2022/04/20 12:48:11;;;;;;;;;5.25;5.25;;;;;;;;5018874;28;45352;-71
2022/04/20 12:50:37;;;;;;;;;8.75;6.50;;;;;;;;5015159;28;45420;-71
2022/04/20 12:53:02;;;;;;;;;6.00;4.75;;;;;;;;5019128;28;47012;-71
2022/04/20 13:04:13;;;;;;;;;5.00;4.00;;;;;;;;5051477;28;45901;-70
2022/04/20 13:06:38;;;;;;;;;1.50;1.50;;;;;;;;5053284;28;45446;-70
2022/04/20 13:09:03;;;;;;;;;3.00;3.00;;;;;;;;5053355;28;45265;-71
2022/04/20 13:11:29;;;;;;;;;4.00;3.00;;;;;;;;5053858;28;45622;-70
2022/04/20 13:13:56;;;;;;;;;2.25;2.00;;;;;;;;5055116;28;46351;-70
2022/04/20 13:16:21;;;;;;;;;3.25;2.75;;;;;;;;5053071;28;45308;-71
2022/04/20 13:18:46;;;;;;;;;1.50;1.50;;;;;;;;5039374;28;45509;-69
2022/04/20 13:21:12;;;;;;;;;2.50;2.50;;;;;;;;5052892;28;45505;-69
2022/04/20 13:23:37;;;;;;;;;2.00;1.75;;;;;;;;5053198;28;46248;-69
2022/04/20 13:28:47;;;;;;;;;4.00;2.00;;;;;;;;5055102;28;45577;-69
2022/04/20 13:31:13;;;;;;;;;1.25;1.00;;;;;;;;5053253;28;45326;-69
2022/04/20 13:33:39;;;;;;;;;1.25;0.75;;;;;;;;5052832;28;47211;-70
2022/04/20 13:36:04;;;;;;;;;4.00;4.00;;;;;;;;5053284;28;45344;-71
2022/04/20 13:38:31;;;;;;;;;4.25;2.75;;;;;;;;5053230;28;45323;-71
2022/04/20 13:40:56;;;;;;;;;1.00;0.75;;;;;;;;5051042;28;45335;-69
2022/04/20 13:43:21;;;;;;;;;1.50;1.50;;;;;;;;5052924;28;46569;-69
2022/04/20 13:45:47;;;;;;;;;1.00;1.00;;;;;;;;5052729;28;45332;-69
2022/04/20 13:48:12;;;;;;;;;1.25;1.25;;;;;;;;5052535;28;45393;-69
2022/04/20 13:50:37;;;;;;;;;3.50;2.00;;;;;;;;5052449;28;45482;-70
2022/04/20 13:53:05;;;;;;;;;3.25;2.25;;;;;;;;5054085;28;46140;-70
2022/04/20 13:55:30;;;;;;;;;1.75;0.75;;;;;;;;5051955;28;45407;-70
2022/04/20 13:57:56;;;;;;;;;2.75;2.00;;;;;;;;5052599;28;45520;-71
2022/04/20 14:00:21;;;;;;;;;4.25;4.25;;;;;;;;5052413;28;45556;-71
2022/04/20 14:02:46;;;;;;;;;1.00;1.00;;;;;;;;5052352;28;46519;-70
2022/04/20 14:05:11;;;;;;;;;0.75;0.75;;;;;;;;5053344;28;45567;-70
2022/04/20 14:07:37;;;;;;;;;1.25;1.25;;;;;;;;5053794;28;45518;-70
2022/04/20 14:10:05;;;;;;;;;3.00;3.00;;;;;;;;5052961;28;45482;-70
2022/04/20 14:12:31;;;;;;;;;2.00;2.00;;;;;;;;5052371;28;46354;-70
2022/04/20 14:14:59;;;;;;;;;1.50;1.50;;;;;;;;5051733;28;45284;-70
2022/04/20 14:17:24;;;;;;;;;3.00;3.00;;;;;;;;5052155;28;45314;-70
2022/04/20 14:19:50;;;;;;;;;2.00;2.00;;;;;;;;5054300;28;45401;-70
2022/04/20 14:22:15;;;;;;;;;1.25;1.25;;;;;;;;5052124;28;46252;-69
2022/04/20 14:24:40;;;;;;;;;4.00;3.00;;;;;;;;5051496;28;45411;-70
2022/04/20 14:32:33;;;;;;;;;2.50;2.50;;;;;;;;5035960;28;45405;-70
2022/04/20 14:34:59;;;;;;;;;1.50;1.50;;;;;;;;5053489;28;45304;-70
2022/04/20 14:37:24;;;;;;;;;2.50;2.50;;;;;;;;5052298;28;45239;-70
2022/04/20 14:39:49;;;;;;;;;3.75;2.00;;;;;;;;5051653;28;45459;-69
2022/04/20 14:42:15;;;;;;;;;3.00;3.00;;;;;;;;5051843;28;45460;-70
2022/04/20 14:44:41;;;;;;;;;2.00;2.00;;;;;;;;5051867;28;45343;-70
2022/04/20 14:47:07;;;;;;;;;3.00;3.00;;;;;;;;5052918;28;45359;-70
2022/04/20 14:49:33;;;;;;;;;3.00;3.00;;;;;;;;5052853;28;45375;-70
2022/04/20 14:51:59;;;;;;;;;4.00;3.00;;;;;;;;5037931;28;46108;-70
2022/04/20 14:54:24;;;;;;;;;2.75;2.25;;;;;;;;5037455;28;45392;-70
2022/04/20 14:56:49;;;;;;;;;1.67;1.67;;;;;;;;5051421;28;45548;-70
2022/04/20 14:59:15;;;;;;;;;3.50;2.50;;;;;;;;5051650;28;45266;-71
2022/04/20 15:01:43;;;;;;;;;4.00;3.00;;;;;;;;5050968;28;45394;-70
2022/04/20 15:04:09;;;;;;;;;2.50;2.50;;;;;;;;5051747;28;45481;-71
2022/04/20 15:06:34;;;;;;;;;2.25;2.25;;;;;;;;5051531;28;45441;-70
2022/04/20 15:08:59;;;;;;;;;4.25;4.25;;;;;;;;5050879;28;45368;-69
2022/04/20 15:11:24;;;;;;;;;3.50;3.50;;;;;;;;5033583;28;47363;-70